sensor_id;sensor_type;location;lat;lon;timestamp;pressure;altitude;pressure_sealevel;temperature;humidity
71057;BME280;58380;48.312;9.246;2023-03-23T06:03:54;93019.03;;;8.60;75.81
71057;BME280;58380;48.312;9.246;2023-03-23T06:06:23;93016.94;;;8.67;75.13
71057;BME280;58380;48.312;9.246;2023-03-23T06:08:57;93023.78;;;8.83;74.49
71057;BME280;58380;48.312;9.246;2023-03-23T06:11:24;93034.59;;;8.87;73.81
71057;BME280;58380;48.312;9.246;2023-03-23T06:13:51;93026.72;;;8.92;73.70
71057;BME280;58380;48.312;9.246;2023-03-23T06:16:17;93019.59;;;8.98;73.47
71057;BME280;58380;48.312;9.246;2023-03-23T06:18:43;92968.78;;;8.61;72.94
71057;BME280;58380;48.312;9.246;2023-03-23T06:21:09;93033.06;;;9.12;71.99
71057;BME280;58380;48.312;9.246;2023-03-23T06:23:36;93023.31;;;9.12;73.03
71057;BME280;58380;48.312;9.246;2023-03-23T06:26:06;93031.72;;;9.14;71.94
71057;BME280;58380;48.312;9.246;2023-03-23T06:28:34;93018.03;;;9.07;72.98
71057;BME280;58380;48.312;9.246;2023-03-23T06:31:00;93015.66;;;9.11;72.56
71057;BME280;58380;48.312;9.246;2023-03-23T06:33:30;93027.50;;;9.23;72.32
71057;BME280;58380;48.312;9.246;2023-03-23T06:35:55;93031.19;;;9.17;72.42
71057;BME280;58380;48.312;9.246;2023-03-23T06:38:22;93018.03;;;9.07;71.93
71057;BME280;58380;48.312;9.246;2023-03-23T06:40:47;93034.91;;;9.11;71.98
71057;BME280;58380;48.312;9.246;2023-03-23T06:43:13;93032.25;;;9.16;71.72
71057;BME280;58380;48.312;9.246;2023-03-23T06:45:39;93046.22;;;9.32;72.00
71057;BME280;58380;48.312;9.246;2023-03-23T06:48:05;93050.41;;;9.38;72.33
71057;BME280;58380;48.312;9.246;2023-03-23T06:50:31;93004.63;;;9.14;71.38
71057;BME280;58380;48.312;9.246;2023-03-23T06:52:57;93046.47;;;9.51;71.20
71057;BME280;58380;48.312;9.246;2023-03-23T06:55:24;93023.56;;;9.41;70.94
71057;BME280;58380;48.312;9.246;2023-03-23T06:57:49;93035.13;;;9.56;70.68
71057;BME280;58380;48.312;9.246;2023-03-23T07:00:15;93031.69;;;9.55;71.15
71057;BME280;58380;48.312;9.246;2023-03-23T07:02:41;93051.44;;;9.73;70.29
71057;BME280;58380;48.312;9.246;2023-03-23T07:05:09;93042.19;;;9.81;70.37
71057;BME280;58380;48.312;9.246;2023-03-23T07:07:38;93031.63;;;9.86;69.50
71057;BME280;58380;48.312;9.246;2023-03-23T07:10:06;93035.31;;;9.95;68.90
71057;BME280;58380;48.312;9.246;2023-03-23T07:12:34;93057.19;;;10.11;69.08
71057;BME280;58380;48.312;9.246;2023-03-23T07:15:02;93046.59;;;10.21;68.65
71057;BME280;58380;48.312;9.246;2023-03-23T07:17:30;93043.44;;;10.14;68.64
71057;BME280;58380;48.312;9.246;2023-03-23T07:19:56;93074.00;;;10.30;68.23
71057;BME280;58380;48.312;9.246;2023-03-23T07:22:22;93006.06;;;9.91;68.28
71057;BME280;58380;48.312;9.246;2023-03-23T07:24:47;93055.81;;;10.29;68.47
71057;BME280;58380;48.312;9.246;2023-03-23T07:27:13;93060.78;;;10.41;68.50
71057;BME280;58380;48.312;9.246;2023-03-23T07:29:39;93059.44;;;10.43;67.74
71057;BME280;58380;48.312;9.246;2023-03-23T07:32:05;93077.59;;;10.55;68.02
71057;BME280;58380;48.312;9.246;2023-03-23T07:34:32;93077.88;;;10.58;68.25
71057;BME280;58380;48.312;9.246;2023-03-23T07:36:58;93067.56;;;10.62;67.70
71057;BME280;58380;48.312;9.246;2023-03-23T07:39:24;93088.06;;;10.75;67.82
71057;BME280;58380;48.312;9.246;2023-03-23T07:41:51;93071.75;;;10.73;67.21
71057;BME280;58380;48.312;9.246;2023-03-23T07:44:16;93083.84;;;10.79;66.14
71057;BME280;58380;48.312;9.246;2023-03-23T07:46:42;93087.47;;;10.94;66.93
71057;BME280;58380;48.312;9.246;2023-03-23T07:49:08;93058.25;;;10.75;66.34
71057;BME280;58380;48.312;9.246;2023-03-23T07:51:35;93066.66;;;10.82;66.87
71057;BME280;58380;48.312;9.246;2023-03-23T07:54:03;93082.63;;;11.06;67.07
71057;BME280;58380;48.312;9.246;2023-03-23T07:56:30;93076.28;;;11.07;64.93
71057;BME280;58380;48.312;9.246;2023-03-23T07:58:56;93057.88;;;10.97;65.30
71057;BME280;58380;48.312;9.246;2023-03-23T08:01:23;93074.75;;;11.01;65.98
71057;BME280;58380;48.312;9.246;2023-03-23T08:03:49;93082.06;;;11.14;66.07
71057;BME280;58380;48.312;9.246;2023-03-23T08:06:16;93065.75;;;11.02;65.71
71057;BME280;58380;48.312;9.246;2023-03-23T08:08:41;93071.75;;;11.13;66.27
71057;BME280;58380;48.312;9.246;2023-03-23T08:11:07;93065.06;;;11.26;65.83
71057;BME280;58380;48.312;9.246;2023-03-23T08:13:32;93084.72;;;11.49;65.49
71057;BME280;58380;48.312;9.246;2023-03-23T08:16:01;93072.38;;;11.39;63.60
71057;BME280;58380;48.312;9.246;2023-03-23T08:18:29;93093.31;;;11.64;63.59
71057;BME280;58380;48.312;9.246;2023-03-23T08:20:56;93086.06;;;11.75;64.43
71057;BME280;58380;48.312;9.246;2023-03-23T08:23:22;93093.69;;;11.82;64.52
71057;BME280;58380;48.312;9.246;2023-03-23T08:25:48;93079.91;;;11.85;63.39
71057;BME280;58380;48.312;9.246;2023-03-23T08:28:14;93096.19;;;12.02;62.41
71057;BME280;58380;48.312;9.246;2023-03-23T08:30:40;93100.88;;;12.11;61.78
71057;BME280;58380;48.312;9.246;2023-03-23T08:33:07;93063.16;;;12.00;62.22
71057;BME280;58380;48.312;9.246;2023-03-23T08:35:35;93085.44;;;12.18;62.42
71057;BME280;58380;48.312;9.246;2023-03-23T08:38:00;93051.28;;;11.97;61.53
71057;BME280;58380;48.312;9.246;2023-03-23T08:40:26;93063.84;;;12.11;62.31
71057;BME280;58380;48.312;9.246;2023-03-23T08:42:54;93086.81;;;12.39;62.67
71057;BME280;58380;48.312;9.246;2023-03-23T08:45:22;93078.53;;;12.46;60.79
71057;BME280;58380;48.312;9.246;2023-03-23T08:47:49;93077.41;;;12.52;60.46
71057;BME280;58380;48.312;9.246;2023-03-23T08:50:22;93105.75;;;12.76;59.56
71057;BME280;58380;48.312;9.246;2023-03-23T08:52:50;93106.31;;;12.91;60.21
71057;BME280;58380;48.312;9.246;2023-03-23T08:55:16;93090.91;;;12.74;59.28
71057;BME280;58380;48.312;9.246;2023-03-23T08:57:43;93083.09;;;12.64;59.79
71057;BME280;58380;48.312;9.246;2023-03-23T09:00:13;93128.44;;;12.82;59.69
71057;BME280;58380;48.312;9.246;2023-03-23T09:02:44;93121.06;;;12.79;59.38
71057;BME280;58380;48.312;9.246;2023-03-23T09:05:13;93109.56;;;12.64;59.45
71057;BME280;58380;48.312;9.246;2023-03-23T09:07:46;93121.38;;;12.72;59.86
71057;BME280;58380;48.312;9.246;2023-03-23T09:10:16;93061.56;;;12.23;59.87
71057;BME280;58380;48.312;9.246;2023-03-23T09:12:43;93125.66;;;12.68;59.85
71057;BME280;58380;48.312;9.246;2023-03-23T09:15:13;93106.75;;;12.56;59.96
71057;BME280;58380;48.312;9.246;2023-03-23T09:17:46;93131.41;;;12.75;59.74
71057;BME280;58380;48.312;9.246;2023-03-23T09:20:17;93137.06;;;12.68;59.82
71057;BME280;58380;48.312;9.246;2023-03-23T09:22:47;93146.97;;;12.82;61.33
71057;BME280;58380;48.312;9.246;2023-03-23T09:25:16;93154.28;;;12.90;59.83
71057;BME280;58380;48.312;9.246;2023-03-23T09:27:50;93138.63;;;12.93;59.69
71057;BME280;58380;48.312;9.246;2023-03-23T09:30:21;93146.22;;;13.00;59.00
71057;BME280;58380;48.312;9.246;2023-03-23T09:32:49;93152.69;;;13.13;58.51
71057;BME280;58380;48.312;9.246;2023-03-23T09:35:15;93137.34;;;13.10;58.18
71057;BME280;58380;48.312;9.246;2023-03-23T09:37:43;93147.50;;;13.27;58.30
71057;BME280;58380;48.312;9.246;2023-03-23T09:40:13;93138.72;;;13.26;57.84
71057;BME280;58380;48.312;9.246;2023-03-23T09:49:09;93153.00;;;13.30;58.31
71057;BME280;58380;48.312;9.246;2023-03-23T09:51:52;93152.50;;;13.47;60.01
71057;BME280;58380;48.312;9.246;2023-03-23T09:54:33;93165.34;;;13.59;58.76
71057;BME280;58380;48.312;9.246;2023-03-23T09:57:02;93114.00;;;13.12;58.11
71057;BME280;58380;48.312;9.246;2023-03-23T09:59:39;93141.19;;;13.42;59.33
71057;BME280;58380;48.312;9.246;2023-03-23T10:02:16;93149.22;;;13.55;58.13
71057;BME280;58380;48.312;9.246;2023-03-23T10:07:25;93122.84;;;13.45;57.83
71057;BME280;58380;48.312;9.246;2023-03-23T10:09:55;93125.50;;;13.64;58.09
71057;BME280;58380;48.312;9.246;2023-03-23T10:13:03;93143.47;;;13.86;56.81
71057;BME280;58380;48.312;9.246;2023-03-23T10:15:39;93145.44;;;13.94;57.32
71057;BME280;58380;48.312;9.246;2023-03-23T10:18:14;93142.19;;;13.97;56.20
71057;BME280;58380;48.312;9.246;2023-03-23T10:20:55;93117.75;;;13.49;57.01
71057;BME280;58380;48.312;9.246;2023-03-23T10:27:02;93130.88;;;13.59;55.73
71057;BME280;58380;48.312;9.246;2023-03-23T10:29:38;93099.50;;;13.28;56.13
71057;BME280;58380;48.312;9.246;2023-03-23T10:32:17;93081.16;;;13.32;56.89
71057;BME280;58380;48.312;9.246;2023-03-23T10:34:56;93124.19;;;13.80;55.52
71057;BME280;58380;48.312;9.246;2023-03-23T10:37:30;93048.63;;;13.26;55.72
71057;BME280;58380;48.312;9.246;2023-03-23T10:40:03;93142.88;;;13.89;55.81
71057;BME280;58380;48.312;9.246;2023-03-23T10:42:39;93068.31;;;13.20;56.00
71057;BME280;58380;48.312;9.246;2023-03-23T10:48:09;93169.63;;;13.55;61.47
71057;BME280;58380;48.312;9.246;2023-03-23T10:50:41;93198.75;;;13.41;62.99
71057;BME280;58380;48.312;9.246;2023-03-23T10:53:16;93183.47;;;13.09;62.55
71057;BME280;58380;48.312;9.246;2023-03-23T10:55:46;93153.00;;;12.87;63.86
71057;BME280;58380;48.312;9.246;2023-03-23T10:58:23;93164.69;;;13.05;65.60
71057;BME280;58380;48.312;9.246;2023-03-23T11:00:55;93174.31;;;13.20;63.56
71057;BME280;58380;48.312;9.246;2023-03-23T11:03:29;93188.38;;;13.21;64.04
71057;BME280;58380;48.312;9.246;2023-03-23T11:06:09;93142.56;;;12.96;65.38
71057;BME280;58380;48.312;9.246;2023-03-23T11:08:58;93178.56;;;13.21;64.19
71057;BME280;58380;48.312;9.246;2023-03-23T11:11:28;93166.28;;;13.25;65.72
71057;BME280;58380;48.312;9.246;2023-03-23T11:16:46;93170.56;;;13.45;65.32
71057;BME280;58380;48.312;9.246;2023-03-23T11:19:21;93168.56;;;13.56;64.64
71057;BME280;58380;48.312;9.246;2023-03-23T11:21:58;93175.38;;;13.62;64.53
71057;BME280;58380;48.312;9.246;2023-03-23T11:24:34;93135.91;;;13.42;63.79
71057;BME280;58380;48.312;9.246;2023-03-23T11:27:03;93167.84;;;13.69;64.44
71057;BME280;58380;48.312;9.246;2023-03-23T11:29:33;93162.47;;;13.74;63.68
71057;BME280;58380;48.312;9.246;2023-03-23T11:34:31;93139.53;;;13.65;61.38
71057;BME280;58380;48.312;9.246;2023-03-23T11:37:28;93161.94;;;13.91;61.79
71057;BME280;58380;48.312;9.246;2023-03-23T11:40:00;93152.53;;;13.99;62.27
71057;BME280;58380;48.312;9.246;2023-03-23T11:42:56;93148.88;;;13.95;60.25
71057;BME280;58380;48.312;9.246;2023-03-23T11:45:46;93150.25;;;13.92;60.25
71057;BME280;58380;48.312;9.246;2023-03-23T11:48:30;93127.72;;;13.57;59.94
71057;BME280;58380;48.312;9.246;2023-03-23T11:51:17;93148.41;;;13.74;60.86
71057;BME280;58380;48.312;9.246;2023-03-23T11:54:16;93136.72;;;13.75;60.26
71057;BME280;58380;48.312;9.246;2023-03-23T11:56:51;93134.72;;;13.86;59.36
71057;BME280;58380;48.312;9.246;2023-03-23T11:59:32;93131.31;;;13.99;58.95
71057;BME280;58380;48.312;9.246;2023-03-23T12:02:38;93138.19;;;14.00;58.25
71057;BME280;58380;48.312;9.246;2023-03-23T12:05:33;93144.56;;;13.99;57.95
71057;BME280;58380;48.312;9.246;2023-03-23T12:20:45;93131.22;;;14.51;56.53
71057;BME280;58380;48.312;9.246;2023-03-23T12:23:42;93120.13;;;14.62;55.25
71057;BME280;58380;48.312;9.246;2023-03-23T12:26:31;93135.28;;;14.76;55.07
71057;BME280;58380;48.312;9.246;2023-03-23T12:33:16;93095.41;;;14.34;55.26
71057;BME280;58380;48.312;9.246;2023-03-23T12:36:11;93126.19;;;14.49;55.77
71057;BME280;58380;48.312;9.246;2023-03-23T12:44:50;93101.44;;;14.54;54.71
71057;BME280;58380;48.312;9.246;2023-03-23T12:47:31;93101.59;;;14.43;55.12
71057;BME280;58380;48.312;9.246;2023-03-23T12:50:23;93103.50;;;14.57;55.76
71057;BME280;58380;48.312;9.246;2023-03-23T12:53:03;93084.09;;;14.42;55.34
71057;BME280;58380;48.312;9.246;2023-03-23T12:55:46;93079.09;;;14.41;54.79
71057;BME280;58380;48.312;9.246;2023-03-23T12:58:21;93092.75;;;14.48;54.55
71057;BME280;58380;48.312;9.246;2023-03-23T13:00:59;93071.81;;;14.33;55.43
71057;BME280;58380;48.312;9.246;2023-03-23T13:03:44;93061.19;;;14.33;55.77
71057;BME280;58380;48.312;9.246;2023-03-23T13:06:36;93096.19;;;14.49;55.40
71057;BME280;58380;48.312;9.246;2023-03-23T13:09:24;93097.84;;;14.31;55.64
71057;BME280;58380;48.312;9.246;2023-03-23T13:12:01;93099.31;;;14.37;56.04
71057;BME280;58380;48.312;9.246;2023-03-23T13:14:55;93089.81;;;14.36;55.57
71057;BME280;58380;48.312;9.246;2023-03-23T13:17:58;93084.28;;;14.18;55.67
71057;BME280;58380;48.312;9.246;2023-03-23T13:21:01;93072.84;;;14.04;55.39
71057;BME280;58380;48.312;9.246;2023-03-23T13:24:07;93090.19;;;14.15;55.83
71057;BME280;58380;48.312;9.246;2023-03-23T13:26:41;93075.81;;;14.16;55.32
71057;BME280;58380;48.312;9.246;2023-03-23T13:29:17;93086.03;;;14.09;55.16
71057;BME280;58380;48.312;9.246;2023-03-23T13:31:44;93093.69;;;14.11;55.94
71057;BME280;58380;48.312;9.246;2023-03-23T13:34:24;93089.88;;;14.17;56.56
71057;BME280;58380;48.312;9.246;2023-03-23T13:36:56;93086.53;;;14.11;57.47
71057;BME280;58380;48.312;9.246;2023-03-23T13:39:26;93091.69;;;14.02;57.09
71057;BME280;58380;48.312;9.246;2023-03-23T13:42:18;93088.16;;;13.93;59.26
71057;BME280;58380;48.312;9.246;2023-03-23T13:53:00;93082.34;;;13.91;60.43
71057;BME280;58380;48.312;9.246;2023-03-23T13:55:48;93068.88;;;13.88;59.12
71057;BME280;58380;48.312;9.246;2023-03-23T13:58:24;93057.78;;;13.86;59.27
71057;BME280;58380;48.312;9.246;2023-03-23T14:03:36;93065.97;;;14.03;56.99
71057;BME280;58380;48.312;9.246;2023-03-23T14:06:16;93045.81;;;14.02;57.33
71057;BME280;58380;48.312;9.246;2023-03-23T14:08:49;93060.47;;;14.13;57.71
71057;BME280;58380;48.312;9.246;2023-03-23T14:11:28;93038.44;;;13.99;57.12
71057;BME280;58380;48.312;9.246;2023-03-23T14:14:18;93058.78;;;14.17;56.05
71057;BME280;58380;48.312;9.246;2023-03-23T14:16:50;93064.00;;;14.22;56.27
71057;BME280;58380;48.312;9.246;2023-03-23T14:19:27;93061.34;;;14.22;55.73
71057;BME280;58380;48.312;9.246;2023-03-23T14:21:56;93066.34;;;14.10;56.31
71057;BME280;58380;48.312;9.246;2023-03-23T14:24:31;93068.72;;;14.12;55.52
71057;BME280;58380;48.312;9.246;2023-03-23T14:27:21;93058.09;;;13.98;55.76
71057;BME280;58380;48.312;9.246;2023-03-23T14:30:05;93048.72;;;13.87;56.69
71057;BME280;58380;48.312;9.246;2023-03-23T14:32:34;93042.66;;;13.86;56.26
71057;BME280;58380;48.312;9.246;2023-03-23T14:35:05;93058.09;;;13.98;55.97
71057;BME280;58380;48.312;9.246;2023-03-23T14:37:37;93028.47;;;13.77;56.07
71057;BME280;58380;48.312;9.246;2023-03-23T14:40:03;93048.13;;;13.90;56.67
71057;BME280;58380;48.312;9.246;2023-03-23T14:42:34;93040.28;;;13.85;56.35
71057;BME280;58380;48.312;9.246;2023-03-23T14:45:04;93054.53;;;14.02;57.24
71057;BME280;58380;48.312;9.246;2023-03-23T14:47:34;93051.28;;;13.92;55.20
71057;BME280;58380;48.312;9.246;2023-03-23T14:50:30;93050.69;;;13.95;55.32
71057;BME280;58380;48.312;9.246;2023-03-23T14:55:49;93039.00;;;13.82;54.75
71057;BME280;58380;48.312;9.246;2023-03-23T14:58:19;93054.22;;;13.90;54.95
71057;BME280;58380;48.312;9.246;2023-03-23T15:01:07;93039.59;;;13.79;54.83
71057;BME280;58380;48.312;9.246;2023-03-23T15:03:41;93050.88;;;13.85;54.92
71057;BME280;58380;48.312;9.246;2023-03-23T15:06:16;93034.72;;;13.67;54.39
71057;BME280;58380;48.312;9.246;2023-03-23T15:08:46;93020.28;;;13.59;54.47
71057;BME280;58380;48.312;9.246;2023-03-23T15:13:45;93032.16;;;13.62;54.75
71057;BME280;58380;48.312;9.246;2023-03-23T15:16:22;93054.91;;;13.82;54.53
71057;BME280;58380;48.312;9.246;2023-03-23T15:18:57;93050.69;;;13.81;54.07
71057;BME280;58380;48.312;9.246;2023-03-23T15:21:32;93049.41;;;13.78;54.61
71057;BME280;58380;48.312;9.246;2023-03-23T15:24:00;93045.97;;;13.78;54.51
71057;BME280;58380;48.312;9.246;2023-03-23T15:26:34;93029.31;;;13.58;54.75
71057;BME280;58380;48.312;9.246;2023-03-23T15:31:38;93048.91;;;13.76;55.15
71057;BME280;58380;48.312;9.246;2023-03-23T15:34:05;93022.16;;;13.59;55.42
71057;BME280;58380;48.312;9.246;2023-03-23T15:36:34;93052.66;;;13.75;56.05
71057;BME280;58380;48.312;9.246;2023-03-23T15:39:01;93054.31;;;13.71;54.49
71057;BME280;58380;48.312;9.246;2023-03-23T15:41:30;93044.13;;;13.59;54.83
71057;BME280;58380;48.312;9.246;2023-03-23T15:44:12;93030.03;;;13.45;55.01
71057;BME280;58380;48.312;9.246;2023-03-23T15:46:50;93040.78;;;13.54;56.11
71057;BME280;58380;48.312;9.246;2023-03-23T15:49:18;93046.59;;;13.56;55.74
71057;BME280;58380;48.312;9.246;2023-03-23T15:51:44;93052.00;;;13.51;56.42
71057;BME280;58380;48.312;9.246;2023-03-23T15:54:13;93053.78;;;13.55;55.87
71057;BME280;58380;48.312;9.246;2023-03-23T15:56:41;93030.13;;;13.40;55.79
71057;BME280;58380;48.312;9.246;2023-03-23T15:59:08;93034.44;;;13.36;56.31
71057;BME280;58380;48.312;9.246;2023-03-23T16:01:34;93063.16;;;13.48;56.33
71057;BME280;58380;48.312;9.246;2023-03-23T16:04:08;93047.13;;;13.39;56.46
71057;BME280;58380;48.312;9.246;2023-03-23T16:06:38;93059.44;;;13.49;56.69
71057;BME280;58380;48.312;9.246;2023-03-23T16:09:05;93054.28;;;13.38;57.04
71057;BME280;58380;48.312;9.246;2023-03-23T16:11:31;93060.88;;;13.41;56.71
71057;BME280;58380;48.312;9.246;2023-03-23T16:13:58;93056.63;;;13.40;56.90
71057;BME280;58380;48.312;9.246;2023-03-23T16:16:38;93063.59;;;13.36;57.01
71057;BME280;58380;48.312;9.246;2023-03-23T16:19:10;93046.91;;;13.16;57.43
71057;BME280;58380;48.312;9.246;2023-03-23T16:21:37;93034.66;;;13.21;57.87
71057;BME280;58380;48.312;9.246;2023-03-23T16:24:02;93047.03;;;13.25;57.91
71057;BME280;58380;48.312;9.246;2023-03-23T16:26:28;93059.94;;;13.32;57.94
71057;BME280;58380;48.312;9.246;2023-03-23T16:28:53;93052.91;;;13.22;58.54
71057;BME280;58380;48.312;9.246;2023-03-23T16:31:19;93036.16;;;13.08;58.28
71057;BME280;58380;48.312;9.246;2023-03-23T16:33:44;93039.22;;;13.15;58.69
71057;BME280;58380;48.312;9.246;2023-03-23T16:36:11;93036.22;;;13.03;58.93
71057;BME280;58380;48.312;9.246;2023-03-23T16:38:37;93015.19;;;12.92;58.88
71057;BME280;58380;48.312;9.246;2023-03-23T16:41:03;93033.03;;;13.06;59.07
71057;BME280;58380;48.312;9.246;2023-03-23T16:43:29;93039.19;;;13.01;59.00
71057;BME280;58380;48.312;9.246;2023-03-23T16:45:56;93053.13;;;13.07;59.15
71057;BME280;58380;48.312;9.246;2023-03-23T16:48:22;93049.69;;;13.06;59.39
71057;BME280;58380;48.312;9.246;2023-03-23T16:50:50;93049.13;;;13.09;59.15
71057;BME280;58380;48.312;9.246;2023-03-23T16:53:16;93006.09;;;12.80;59.11
71057;BME280;58380;48.312;9.246;2023-03-23T16:55:41;93027.13;;;12.90;59.67
71057;BME280;58380;48.312;9.246;2023-03-23T16:58:11;93064.50;;;13.07;59.41
71057;BME280;58380;48.312;9.246;2023-03-23T17:00:38;93060.81;;;13.08;59.45
71057;BME280;58380;48.312;9.246;2023-03-23T17:03:05;93063.44;;;13.08;59.56
71057;BME280;58380;48.312;9.246;2023-03-23T17:05:31;93058.94;;;13.09;59.61
71057;BME280;58380;48.312;9.246;2023-03-23T17:07:57;93062.38;;;13.09;59.54
71057;BME280;58380;48.312;9.246;2023-03-23T17:10:26;93067.16;;;13.07;59.33
71057;BME280;58380;48.312;9.246;2023-03-23T17:12:53;93054.78;;;13.03;60.04
71057;BME280;58380;48.312;9.246;2023-03-23T17:15:20;93063.53;;;13.03;59.48
71057;BME280;58380;48.312;9.246;2023-03-23T17:17:48;93049.06;;;12.95;59.86
71057;BME280;58380;48.312;9.246;2023-03-23T17:20:14;93063.59;;;12.98;59.57
71057;BME280;58380;48.312;9.246;2023-03-23T17:22:40;93053.13;;;12.88;59.60
71057;BME280;58380;48.312;9.246;2023-03-23T17:25:07;93057.56;;;12.92;59.46
71057;BME280;58380;48.312;9.246;2023-03-23T17:27:34;93068.66;;;12.94;59.75
71057;BME280;58380;48.312;9.246;2023-03-23T17:30:00;93036.88;;;12.76;59.50
71057;BME280;58380;48.312;9.246;2023-03-23T17:32:26;93065.31;;;12.89;59.23
71057;BME280;58380;48.312;9.246;2023-03-23T17:34:51;93075.63;;;12.90;59.78
71057;BME280;58380;48.312;9.246;2023-03-23T17:37:19;93052.31;;;12.68;60.11
71057;BME280;58380;48.312;9.246;2023-03-23T17:39:45;93046.78;;;12.65;60.12
71057;BME280;58380;48.312;9.246;2023-03-23T17:42:11;93077.03;;;12.83;59.95
71057;BME280;58380;48.312;9.246;2023-03-23T17:44:37;93052.66;;;12.62;59.92
71057;BME280;58380;48.312;9.246;2023-03-23T17:47:04;93074.94;;;12.80;60.11
71057;BME280;58380;48.312;9.246;2023-03-23T17:49:30;93064.59;;;12.83;59.73
71057;BME280;58380;48.312;9.246;2023-03-23T17:51:57;93022.50;;;12.39;59.66
71057;BME280;58380;48.312;9.246;2023-03-23T17:54:25;93067.91;;;12.70;60.00
71057;BME280;58380;48.312;9.246;2023-03-23T17:56:53;93061.69;;;12.61;60.47
71057;BME280;58380;48.312;9.246;2023-03-23T17:59:18;93020.44;;;12.36;60.35
71057;BME280;58380;48.312;9.246;2023-03-23T18:01:45;93072.34;;;12.56;60.48
71057;BME280;58380;48.312;9.246;2023-03-23T18:04:13;93071.53;;;12.55;61.09
71057;BME280;58380;48.312;9.246;2023-03-23T18:06:38;93069.25;;;12.48;61.15
71057;BME280;58380;48.312;9.246;2023-03-23T18:09:04;93057.13;;;12.42;60.90
71057;BME280;58380;48.312;9.246;2023-03-23T18:11:29;93079.84;;;12.48;61.21
71057;BME280;58380;48.312;9.246;2023-03-23T18:13:55;93077.72;;;12.45;61.84
71057;BME280;58380;48.312;9.246;2023-03-23T18:16:22;93082.03;;;12.41;61.59
71057;BME280;58380;48.312;9.246;2023-03-23T18:18:47;93078.09;;;12.39;62.23
71057;BME280;58380;48.312;9.246;2023-03-23T18:21:13;93068.97;;;12.26;62.72
71057;BME280;58380;48.312;9.246;2023-03-23T18:23:39;93080.78;;;12.34;62.63
71057;BME280;58380;48.312;9.246;2023-03-23T18:26:07;93066.59;;;12.24;63.30
71057;BME280;58380;48.312;9.246;2023-03-23T18:28:35;93086.19;;;12.23;63.43
71057;BME280;58380;48.312;9.246;2023-03-23T18:31:05;93094.09;;;12.28;63.96
71057;BME280;58380;48.312;9.246;2023-03-23T18:33:33;93096.50;;;12.25;64.05
71057;BME280;58380;48.312;9.246;2023-03-23T18:36:01;93074.13;;;12.12;64.17
71057;BME280;58380;48.312;9.246;2023-03-23T18:38:28;93066.09;;;11.98;64.48
71057;BME280;58380;48.312;9.246;2023-03-23T18:40:54;93071.59;;;12.02;64.69
71057;BME280;58380;48.312;9.246;2023-03-23T18:43:20;93085.22;;;12.14;64.65
71057;BME280;58380;48.312;9.246;2023-03-23T18:45:50;93093.16;;;12.14;65.18
71057;BME280;58380;48.312;9.246;2023-03-23T18:48:21;93082.63;;;12.09;65.13
71057;BME280;58380;48.312;9.246;2023-03-23T18:50:48;93075.31;;;12.01;65.49
71057;BME280;58380;48.312;9.246;2023-03-23T18:53:15;93092.19;;;12.05;65.79
71057;BME280;58380;48.312;9.246;2023-03-23T18:55:42;93089.91;;;11.98;66.02
71057;BME280;58380;48.312;9.246;2023-03-23T18:58:09;93093.31;;;11.99;66.02
71057;BME280;58380;48.312;9.246;2023-03-23T19:00:35;93087.81;;;11.90;66.53
71057;BME280;58380;48.312;9.246;2023-03-23T19:03:01;93052.09;;;11.63;66.95
71057;BME280;58380;48.312;9.246;2023-03-23T19:05:28;92956.41;;;11.03;66.84
71057;BME280;58380;48.312;9.246;2023-03-23T19:07:53;93079.97;;;11.80;67.06
71057;BME280;58380;48.312;9.246;2023-03-23T19:10:20;93080.00;;;11.75;67.20
71057;BME280;58380;48.312;9.246;2023-03-23T19:12:46;93107.41;;;11.89;67.81
71057;BME280;58380;48.312;9.246;2023-03-23T19:15:12;93082.91;;;11.78;67.97
71057;BME280;58380;48.312;9.246;2023-03-23T19:17:38;93091.56;;;11.84;68.01
71057;BME280;58380;48.312;9.246;2023-03-23T19:20:05;93074.25;;;11.68;67.99
71057;BME280;58380;48.312;9.246;2023-03-23T19:22:34;93085.28;;;11.75;67.87
71057;BME280;58380;48.312;9.246;2023-03-23T19:25:05;93094.25;;;11.79;68.33
71057;BME280;58380;48.312;9.246;2023-03-23T19:27:33;93078.19;;;11.70;68.80
71057;BME280;58380;48.312;9.246;2023-03-23T19:29:59;93079.03;;;11.65;68.41
71057;BME280;58380;48.312;9.246;2023-03-23T19:32:25;93092.66;;;11.78;68.49
71057;BME280;58380;48.312;9.246;2023-03-23T19:34:50;93093.06;;;11.66;68.45
71057;BME280;58380;48.312;9.246;2023-03-23T19:37:16;93089.59;;;11.65;68.38
71057;BME280;58380;48.312;9.246;2023-03-23T19:39:41;93090.63;;;11.70;68.52
71057;BME280;58380;48.312;9.246;2023-03-23T19:42:07;93078.00;;;11.61;68.92
71057;BME280;58380;48.312;9.246;2023-03-23T19:44:33;93092.75;;;11.68;69.08
71057;BME280;58380;48.312;9.246;2023-03-23T19:46:59;93091.97;;;11.67;69.29
71057;BME280;58380;48.312;9.246;2023-03-23T19:49:25;93058.00;;;11.50;69.26
71057;BME280;58380;48.312;9.246;2023-03-23T19:51:52;93080.66;;;11.61;69.64
71057;BME280;58380;48.312;9.246;2023-03-23T19:54:18;93082.78;;;11.59;69.95
71057;BME280;58380;48.312;9.246;2023-03-23T19:56:44;93080.66;;;11.61;69.84
71057;BME280;58380;48.312;9.246;2023-03-23T19:59:11;93040.94;;;11.37;70.00
71057;BME280;58380;48.312;9.246;2023-03-23T20:01:40;93058.31;;;11.49;69.89
71057;BME280;58380;48.312;9.246;2023-03-23T20:04:07;93046.97;;;11.43;70.37
71057;BME280;58380;48.312;9.246;2023-03-23T20:06:34;93073.63;;;11.47;70.63
71057;BME280;58380;48.312;9.246;2023-03-23T20:09:00;93073.91;;;11.45;70.38
71057;BME280;58380;48.312;9.246;2023-03-23T20:11:25;93025.19;;;11.22;70.23
71057;BME280;58380;48.312;9.246;2023-03-23T20:13:50;93055.69;;;11.43;70.62
71057;BME280;58380;48.312;9.246;2023-03-23T20:16:17;93074.69;;;11.45;70.53
71057;BME280;58380;48.312;9.246;2023-03-23T20:18:43;93054.88;;;11.43;70.56
71057;BME280;58380;48.312;9.246;2023-03-23T20:21:13;93068.41;;;11.41;70.73
71057;BME280;58380;48.312;9.246;2023-03-23T20:23:43;93027.88;;;11.17;70.74
71057;BME280;58380;48.312;9.246;2023-03-23T20:26:15;93056.56;;;11.34;71.07